Time;durP1;ratioP1;P1;durP2;ratioP2;P2;SDS_P1;SDS_P2;PMS_P1;PMS_P2;Temp;Humidity;BMP_temperature;BMP_pressure;BME280_temperature;BME280_humidity;BME280_pressure;Samples;Min_cycle;Max_cycle;Signal;HPM_P1;HPM_P2
2024/03/10 00:00:47;;;;;;;2.42;2.22;;;;;;;;;;5016376;28;20122;-63
2024/03/10 00:03:13;;;;;;;2.20;2.00;;;;;;;;;;5016807;28;20026;-64
2024/03/10 00:05:39;;;;;;;2.05;1.95;;;;;;;;;;5016912;28;20092;-63
2024/03/10 00:08:05;;;;;;;2.10;1.80;;;;;;;;;;5016881;28;20034;-64
2024/03/10 00:10:37;;;;;;;2.22;2.10;;;;;;;;;;5016600;28;20080;-63
2024/03/10 00:13:03;;;;;;;2.38;2.17;;;;;;;;;;5016171;28;20026;-63
2024/03/10 00:15:33;;;;;;;2.00;1.80;;;;;;;;;;5016277;28;20537;-63
2024/03/10 00:17:59;;;;;;;2.33;2.13;;;;;;;;;;5016434;28;20030;-64
2024/03/10 00:20:25;;;;;;;2.38;2.17;;;;;;;;;;5016009;28;20030;-63
2024/03/10 00:22:51;;;;;;;1.98;1.83;;;;;;;;;;5015824;28;20033;-64
2024/03/10 00:25:17;;;;;;;2.03;1.80;;;;;;;;;;5016543;28;20021;-64
2024/03/10 00:27:43;;;;;;;2.20;2.00;;;;;;;;;;5016266;28;20406;-64
2024/03/10 00:30:10;;;;;;;2.17;1.98;;;;;;;;;;5016174;28;20030;-63
2024/03/10 00:32:36;;;;;;;2.20;2.00;;;;;;;;;;5012548;28;20508;-61
2024/03/10 00:35:05;;;;;;;2.30;2.10;;;;;;;;;;5013051;28;20040;-61
2024/03/10 00:37:31;;;;;;;2.20;2.00;;;;;;;;;;5012827;28;20128;-62
2024/03/10 00:39:57;;;;;;;1.95;1.85;;;;;;;;;;5013088;28;20034;-62
2024/03/10 00:42:23;;;;;;;1.70;1.60;;;;;;;;;;5013603;28;20018;-61
2024/03/10 00:44:52;;;;;;;2.20;2.00;;;;;;;;;;5014160;28;20401;-62
2024/03/10 00:47:20;;;;;;;2.42;2.22;;;;;;;;;;5013100;28;20026;-62
2024/03/10 00:49:46;;;;;;;2.55;2.35;;;;;;;;;;5013523;28;20029;-61
2024/03/10 00:52:12;;;;;;;2.42;2.22;;;;;;;;;;5012958;28;20397;-63
2024/03/10 00:54:38;;;;;;;2.25;2.05;;;;;;;;;;5013046;28;20037;-62
2024/03/10 00:57:04;;;;;;;1.92;1.83;;;;;;;;;;5012831;28;20470;-63
2024/03/10 00:59:31;;;;;;;2.10;1.90;;;;;;;;;;5012604;28;20034;-63
2024/03/10 01:01:57;;;;;;;2.40;2.20;;;;;;;;;;5012027;28;20021;-62
2024/03/10 01:04:23;;;;;;;2.30;2.10;;;;;;;;;;5012873;28;20030;-62
2024/03/10 01:06:49;;;;;;;2.20;2.00;;;;;;;;;;5012561;28;20029;-62
2024/03/10 01:09:18;;;;;;;2.55;2.35;;;;;;;;;;5012552;28;20501;-63
2024/03/10 01:11:45;;;;;;;1.83;1.73;;;;;;;;;;5012076;28;20046;-63
2024/03/10 01:14:11;;;;;;;2.13;1.92;;;;;;;;;;5012331;28;20030;-63
2024/03/10 01:16:38;;;;;;;2.72;2.25;;;;;;;;;;5012195;28;20022;-62
2024/03/10 01:19:04;;;;;;;2.45;2.25;;;;;;;;;;5012284;28;20029;-62
2024/03/10 01:21:30;;;;;;;2.10;1.90;;;;;;;;;;5011700;28;20046;-62
2024/03/10 01:23:56;;;;;;;1.90;1.80;;;;;;;;;;5012504;28;20050;-62
2024/03/10 01:26:22;;;;;;;2.17;1.98;;;;;;;;;;5012080;28;20105;-62
2024/03/10 01:28:48;;;;;;;2.15;1.80;;;;;;;;;;5012176;28;20133;-63
2024/03/10 01:31:14;;;;;;;2.33;2.13;;;;;;;;;;5011196;28;20446;-62
2024/03/10 01:33:40;;;;;;;2.08;1.98;;;;;;;;;;5011985;28;20025;-62
2024/03/10 01:36:06;;;;;;;2.42;2.20;;;;;;;;;;5011941;28;20022;-63
2024/03/10 01:38:32;;;;;;;2.45;2.25;;;;;;;;;;5012278;28;20179;-62
2024/03/10 01:40:58;;;;;;;2.15;1.95;;;;;;;;;;5011055;28;20034;-62
2024/03/10 01:43:24;;;;;;;2.80;2.50;;;;;;;;;;5010781;28;20367;-62
2024/03/10 01:45:53;;;;;;;2.40;2.20;;;;;;;;;;5011642;28;20436;-63
2024/03/10 01:48:19;;;;;;;2.17;1.98;;;;;;;;;;5011774;28;20025;-63
2024/03/10 01:50:45;;;;;;;2.55;2.33;;;;;;;;;;5011114;28;20172;-62
2024/03/10 01:53:11;;;;;;;2.30;2.10;;;;;;;;;;5011424;28;20363;-63
2024/03/10 01:55:38;;;;;;;2.50;2.30;;;;;;;;;;5011661;28;20038;-63
2024/03/10 01:58:05;;;;;;;2.90;2.60;;;;;;;;;;5011400;28;20044;-63
2024/03/10 02:00:31;;;;;;;2.30;2.10;;;;;;;;;;5011012;28;20033;-62
2024/03/10 02:02:58;;;;;;;2.13;2.03;;;;;;;;;;5011205;28;20033;-63
2024/03/10 02:05:24;;;;;;;2.50;2.30;;;;;;;;;;4993831;28;20109;-62
2024/03/10 02:07:51;;;;;;;2.10;2.00;;;;;;;;;;5011270;28;20022;-63
2024/03/10 02:10:17;;;;;;;2.10;1.90;;;;;;;;;;5011435;28;20030;-61
2024/03/10 02:12:43;;;;;;;2.40;2.20;;;;;;;;;;5010560;28;20026;-62
2024/03/10 02:15:10;;;;;;;2.58;2.38;;;;;;;;;;5011245;28;20026;-63
2024/03/10 02:17:36;;;;;;;2.15;2.05;;;;;;;;;;5011237;28;20033;-62
2024/03/10 02:20:03;;;;;;;1.80;1.70;;;;;;;;;;4993472;28;20022;-63
2024/03/10 02:22:30;;;;;;;2.35;2.15;;;;;;;;;;5010589;28;20076;-63
2024/03/10 02:25:05;;;;;;;2.50;2.30;;;;;;;;;;5011161;28;20032;-62
2024/03/10 02:27:33;;;;;;;2.33;2.13;;;;;;;;;;5010702;28;20034;-63
2024/03/10 02:49:15;;;;;;;2.55;2.35;;;;;;;;;;5011068;28;20476;-62
2024/03/10 02:51:42;;;;;;;2.70;2.50;;;;;;;;;;5010179;28;20029;-63
2024/03/10 02:54:08;;;;;;;2.50;2.30;;;;;;;;;;5010545;28;20038;-62
2024/03/10 02:56:34;;;;;;;2.80;2.60;;;;;;;;;;5010150;28;20026;-62
2024/03/10 02:59:00;;;;;;;2.30;2.10;;;;;;;;;;5010501;28;20112;-62
2024/03/10 03:01:25;;;;;;;2.53;2.33;;;;;;;;;;5009934;28;20030;-63
2024/03/10 03:03:51;;;;;;;2.80;2.60;;;;;;;;;;5010497;28;20039;-63
2024/03/10 03:06:18;;;;;;;2.80;2.47;;;;;;;;;;5010359;28;20053;-63
2024/03/10 03:08:44;;;;;;;2.53;2.33;;;;;;;;;;5010543;28;20037;-63
2024/03/10 03:11:10;;;;;;;2.45;2.25;;;;;;;;;;5009628;28;20033;-63
2024/03/10 03:13:36;;;;;;;2.45;2.25;;;;;;;;;;5010368;28;20492;-62
2024/03/10 03:16:03;;;;;;;3.45;2.30;;;;;;;;;;5010162;28;20030;-62
2024/03/10 03:18:29;;;;;;;2.45;2.25;;;;;;;;;;5010285;28;20089;-62
2024/03/10 03:20:55;;;;;;;2.25;2.03;;;;;;;;;;5009734;28;20026;-62
2024/03/10 03:23:21;;;;;;;2.45;2.28;;;;;;;;;;5010160;28;20049;-63
2024/03/10 03:25:53;;;;;;;2.67;2.47;;;;;;;;;;5010046;28;20669;-63
2024/03/10 03:28:20;;;;;;;2.55;2.35;;;;;;;;;;5010384;28;20084;-63
2024/03/10 03:30:47;;;;;;;2.40;2.20;;;;;;;;;;5009529;28;20022;-62
2024/03/10 03:33:13;;;;;;;2.65;2.45;;;;;;;;;;5009997;28;20049;-62
2024/03/10 03:35:39;;;;;;;2.47;2.28;;;;;;;;;;5010100;28;20472;-63
2024/03/10 03:38:06;;;;;;;2.35;2.17;;;;;;;;;;5009640;28;20130;-63
2024/03/10 03:40:32;;;;;;;2.70;2.50;;;;;;;;;;5009566;28;20118;-63
2024/03/10 03:42:58;;;;;;;2.30;2.20;;;;;;;;;;5009764;28;20029;-62
2024/03/10 03:45:24;;;;;;;2.60;2.40;;;;;;;;;;5010203;28;20026;-63
2024/03/10 03:47:50;;;;;;;2.40;2.20;;;;;;;;;;5010096;28;20061;-63
2024/03/10 03:50:16;;;;;;;2.53;2.33;;;;;;;;;;5009921;28;20022;-63
2024/03/10 03:52:42;;;;;;;2.70;2.50;;;;;;;;;;5009507;28;20445;-62
2024/03/10 03:55:10;;;;;;;2.65;2.45;;;;;;;;;;5010216;28;20022;-62
2024/03/10 03:57:36;;;;;;;2.72;2.50;;;;;;;;;;5009758;28;20022;-62
2024/03/10 04:00:05;;;;;;;3.10;2.22;;;;;;;;;;5009875;28;20022;-62
2024/03/10 04:02:31;;;;;;;2.42;2.25;;;;;;;;;;5009606;28;20426;-62
2024/03/10 04:04:57;;;;;;;2.50;2.30;;;;;;;;;;5010095;28;20172;-62
2024/03/10 04:07:23;;;;;;;2.42;2.22;;;;;;;;;;5011365;28;20506;-63
2024/03/10 04:09:50;;;;;;;2.90;2.70;;;;;;;;;;5013439;28;20025;-61
2024/03/10 04:12:16;;;;;;;2.38;2.17;;;;;;;;;;5013267;28;20029;-62
2024/03/10 04:14:42;;;;;;;2.70;2.50;;;;;;;;;;5033489;28;20083;-63
2024/03/10 04:17:08;;;;;;;2.38;2.17;;;;;;;;;;5034459;28;20071;-63
2024/03/10 04:19:35;;;;;;;2.20;2.10;;;;;;;;;;5033400;28;20025;-63
2024/03/10 04:22:02;;;;;;;3.00;2.75;;;;;;;;;;5033731;28;20017;-63
2024/03/10 04:24:28;;;;;;;2.75;2.55;;;;;;;;;;5040004;28;20060;-64
2024/03/10 04:26:54;;;;;;;2.13;2.00;;;;;;;;;;5039500;28;20029;-63
2024/03/10 04:29:20;;;;;;;2.90;2.70;;;;;;;;;;5040036;28;20460;-64
2024/03/10 04:31:46;;;;;;;2.35;2.15;;;;;;;;;;5037407;28;20055;-63
2024/03/10 04:34:12;;;;;;;2.47;2.28;;;;;;;;;;5039556;28;20081;-63
2024/03/10 04:36:39;;;;;;;2.72;2.53;;;;;;;;;;5036894;28;20120;-63
2024/03/10 04:39:05;;;;;;;2.50;2.30;;;;;;;;;;5032766;28;20033;-63
2024/03/10 04:41:31;;;;;;;3.35;2.88;;;;;;;;;;5032070;28;20112;-62
2024/03/10 04:43:57;;;;;;;2.50;2.30;;;;;;;;;;5032583;28;20151;-63
2024/03/10 04:46:23;;;;;;;2.38;2.17;;;;;;;;;;5032566;28;20058;-63
2024/03/10 04:48:57;;;;;;;2.78;2.58;;;;;;;;;;5032661;28;20030;-63
2024/03/10 04:51:24;;;;;;;2.20;2.00;;;;;;;;;;5031790;28;20026;-63
2024/03/10 04:53:50;;;;;;;2.50;2.30;;;;;;;;;;5032600;28;20049;-62
2024/03/10 04:56:17;;;;;;;3.00;2.72;;;;;;;;;;5032321;28;20030;-63
2024/03/10 04:58:43;;;;;;;2.70;2.50;;;;;;;;;;5032365;28;20108;-63
2024/03/10 05:01:10;;;;;;;2.25;2.05;;;;;;;;;;5031698;28;20112;-62
2024/03/10 05:03:39;;;;;;;2.58;2.38;;;;;;;;;;5032390;28;20100;-63
2024/03/10 05:06:09;;;;;;;2.03;1.92;;;;;;;;;;5032213;28;20032;-62
2024/03/10 05:08:35;;;;;;;3.10;2.78;;;;;;;;;;5032127;28;20116;-62
2024/03/10 05:11:03;;;;;;;2.45;2.25;;;;;;;;;;5031806;28;20061;-62
2024/03/10 05:13:30;;;;;;;2.67;2.47;;;;;;;;;;5031327;28;20017;-63
2024/03/10 05:15:56;;;;;;;2.70;2.50;;;;;;;;;;5032116;28;20048;-62
2024/03/10 05:18:22;;;;;;;2.53;2.33;;;;;;;;;;5031521;28;20397;-63
2024/03/10 05:20:48;;;;;;;2.47;2.28;;;;;;;;;;5031527;28;20014;-62
2024/03/10 05:23:14;;;;;;;2.63;2.42;;;;;;;;;;5031586;28;20034;-63
2024/03/10 05:25:40;;;;;;;2.63;2.42;;;;;;;;;;5031901;28;20029;-62
2024/03/10 05:28:06;;;;;;;2.75;2.55;;;;;;;;;;5014271;28;20025;-63
2024/03/10 05:30:32;;;;;;;2.72;2.53;;;;;;;;;;5031328;28;20508;-63
2024/03/10 05:32:58;;;;;;;2.80;2.60;;;;;;;;;;5031117;28;20052;-63
2024/03/10 05:35:24;;;;;;;2.50;2.30;;;;;;;;;;5031943;28;20025;-63
2024/03/10 05:37:50;;;;;;;2.60;2.40;;;;;;;;;;5031325;28;20590;-63
2024/03/10 05:40:16;;;;;;;2.67;2.47;;;;;;;;;;5031334;28;20112;-63
2024/03/10 05:42:42;;;;;;;2.45;2.25;;;;;;;;;;5031086;28;20026;-63
2024/03/10 05:45:08;;;;;;;2.55;2.35;;;;;;;;;;5031573;28;20028;-63
2024/03/10 05:47:34;;;;;;;2.75;2.55;;;;;;;;;;5031332;28;20095;-63
2024/03/10 05:50:00;;;;;;;2.40;2.20;;;;;;;;;;5032505;28;20025;-63
2024/03/10 05:52:26;;;;;;;2.63;2.42;;;;;;;;;;5032119;28;20532;-63
2024/03/10 05:54:52;;;;;;;2.95;2.63;;;;;;;;;;5032681;28;20021;-63
2024/03/10 05:57:18;;;;;;;2.33;2.13;;;;;;;;;;5032872;28;20036;-63
2024/03/10 05:59:44;;;;;;;2.53;2.33;;;;;;;;;;5032746;28;20375;-63
2024/03/10 06:02:13;;;;;;;2.28;2.05;;;;;;;;;;5031639;28;20504;-63
2024/03/10 06:04:39;;;;;;;2.10;2.00;;;;;;;;;;5032510;28;20033;-63
2024/03/10 06:07:06;;;;;;;2.40;2.20;;;;;;;;;;5032323;28;20018;-63
2024/03/10 06:09:34;;;;;;;2.72;2.53;;;;;;;;;;5032212;28;20064;-64
2024/03/10 06:12:00;;;;;;;2.22;2.03;;;;;;;;;;5031295;28;20109;-62
2024/03/10 06:14:26;;;;;;;2.40;2.20;;;;;;;;;;5031472;28;20041;-63
2024/03/10 06:16:52;;;;;;;2.17;2.08;;;;;;;;;;5032019;28;20029;-63
2024/03/10 06:27:33;;;;;;;2.47;2.28;;;;;;;;;;5032112;28;20033;-63
2024/03/10 06:29:59;;;;;;;2.50;2.00;;;;;;;;;;5031091;28;20025;-63
2024/03/10 06:32:25;;;;;;;2.58;2.38;;;;;;;;;;5029060;28;20448;-62
2024/03/10 06:34:51;;;;;;;2.50;2.30;;;;;;;;;;5032090;28;20028;-63
2024/03/10 06:37:19;;;;;;;2.42;2.22;;;;;;;;;;5031796;28;20025;-63
2024/03/10 06:39:45;;;;;;;2.35;2.15;;;;;;;;;;5031611;28;20086;-63
2024/03/10 06:42:11;;;;;;;2.80;2.60;;;;;;;;;;5031211;28;20079;-63
2024/03/10 06:44:37;;;;;;;2.70;2.50;;;;;;;;;;5031718;28;20078;-63
2024/03/10 06:47:04;;;;;;;2.53;2.33;;;;;;;;;;5031582;28;20022;-63
2024/03/10 06:49:30;;;;;;;2.33;2.13;;;;;;;;;;5013947;28;20128;-63
2024/03/10 06:51:59;;;;;;;2.95;2.63;;;;;;;;;;5030951;28;20429;-62
2024/03/10 06:54:25;;;;;;;2.03;1.92;;;;;;;;;;5031684;28;20412;-63
2024/03/10 06:56:51;;;;;;;2.65;2.45;;;;;;;;;;5031446;28;20029;-63
2024/03/10 06:59:19;;;;;;;2.58;2.38;;;;;;;;;;5031327;28;20489;-64
2024/03/10 07:01:45;;;;;;;2.33;2.13;;;;;;;;;;5030869;28;20033;-63
2024/03/10 07:04:14;;;;;;;2.30;2.13;;;;;;;;;;5031441;28;20064;-63
2024/03/10 07:06:40;;;;;;;2.78;2.58;;;;;;;;;;5031223;28;20032;-63
2024/03/10 07:09:09;;;;;;;2.13;2.00;;;;;;;;;;5031499;28;20025;-63
2024/03/10 07:11:40;;;;;;;1.70;1.60;;;;;;;;;;5030715;28;20099;-63
2024/03/10 07:14:06;;;;;;;2.35;2.15;;;;;;;;;;5031398;28;20509;-63
2024/03/10 07:16:32;;;;;;;2.50;2.30;;;;;;;;;;5031764;28;20064;-63
2024/03/10 07:18:58;;;;;;;2.42;2.22;;;;;;;;;;5029827;28;20109;-63
2024/03/10 07:21:25;;;;;;;2.28;2.08;;;;;;;;;;5030630;28;20104;-63
2024/03/10 07:23:51;;;;;;;2.30;2.10;;;;;;;;;;5031315;28;20401;-63
2024/03/10 07:26:17;;;;;;;2.58;2.38;;;;;;;;;;5031190;28;20022;-63
2024/03/10 07:28:43;;;;;;;2.20;2.10;;;;;;;;;;5031151;28;20041;-63
2024/03/10 07:31:09;;;;;;;2.28;2.08;;;;;;;;;;5030763;28;20025;-65
2024/03/10 07:33:37;;;;;;;2.75;2.55;;;;;;;;;;5028928;28;20030;-63
2024/03/10 07:36:04;;;;;;;2.42;2.22;;;;;;;;;;5031233;28;20535;-63
2024/03/10 07:38:30;;;;;;;2.40;2.20;;;;;;;;;;5032143;23;20138;-61
2024/03/10 07:40:57;;;;;;;2.53;2.33;;;;;;;;;;5014204;28;20069;-61
2024/03/10 07:43:25;;;;;;;2.08;1.95;;;;;;;;;;5035771;28;20028;-60
2024/03/10 07:45:51;;;;;;;2.13;1.92;;;;;;;;;;5035041;28;20033;-60
2024/03/10 07:48:17;;;;;;;2.30;2.10;;;;;;;;;;5034959;28;20127;-61
2024/03/10 07:50:43;;;;;;;2.10;2.00;;;;;;;;;;5035038;28;20029;-61
2024/03/10 07:53:09;;;;;;;2.60;2.40;;;;;;;;;;5037652;28;20029;-61
2024/03/10 07:55:36;;;;;;;2.38;2.17;;;;;;;;;;5038457;28;20104;-60
2024/03/10 07:58:05;;;;;;;2.30;2.10;;;;;;;;;;5036273;28;20061;-61
2024/03/10 08:00:31;;;;;;;2.40;2.20;;;;;;;;;;5036563;28;20021;-61
2024/03/10 08:02:57;;;;;;;2.58;2.38;;;;;;;;;;5036097;28;20112;-61
2024/03/10 08:05:25;;;;;;;2.38;2.17;;;;;;;;;;5035494;28;20018;-60
2024/03/10 08:07:52;;;;;;;2.47;2.28;;;;;;;;;;5034554;28;20540;-61
2024/03/10 08:10:18;;;;;;;2.75;2.55;;;;;;;;;;5031998;28;20033;-61
2024/03/10 08:12:45;;;;;;;2.42;2.22;;;;;;;;;;5033734;28;20029;-61
2024/03/10 08:15:12;;;;;;;2.55;2.35;;;;;;;;;;5034383;28;20492;-61
2024/03/10 08:17:38;;;;;;;2.58;2.38;;;;;;;;;;5034331;28;20067;-61
2024/03/10 08:20:06;;;;;;;2.47;2.28;;;;;;;;;;5034032;28;20136;-61
2024/03/10 08:22:33;;;;;;;2.33;2.13;;;;;;;;;;5033615;28;20028;-61
2024/03/10 08:24:59;;;;;;;2.53;2.33;;;;;;;;;;5034070;28;20013;-61
2024/03/10 08:27:25;;;;;;;2.38;2.17;;;;;;;;;;5034096;28;20393;-62
2024/03/10 08:29:51;;;;;;;2.70;2.50;;;;;;;;;;5034047;28;20028;-62
2024/03/10 08:32:19;;;;;;;2.15;2.05;;;;;;;;;;5033574;28;20030;-62
2024/03/10 08:34:45;;;;;;;2.90;2.60;;;;;;;;;;5034085;28;20029;-61
2024/03/10 08:37:13;;;;;;;2.63;2.42;;;;;;;;;;5033724;28;20036;-62
2024/03/10 08:39:39;;;;;;;2.53;2.33;;;;;;;;;;5033654;28;20057;-61
2024/03/10 08:42:06;;;;;;;2.45;2.25;;;;;;;;;;5033231;28;20064;-62
2024/03/10 08:44:32;;;;;;;2.15;1.95;;;;;;;;;;5033985;28;20448;-61
2024/03/10 08:46:59;;;;;;;2.05;1.95;;;;;;;;;;5033709;28;20025;-62
2024/03/10 08:49:25;;;;;;;2.42;2.22;;;;;;;;;;5015000;28;20025;-62
2024/03/10 08:51:51;;;;;;;2.40;2.20;;;;;;;;;;5033013;28;20437;-61
2024/03/10 08:54:17;;;;;;;2.60;2.40;;;;;;;;;;5033102;28;20489;-61
2024/03/10 08:56:43;;;;;;;2.25;2.05;;;;;;;;;;5033604;28;20393;-62
2024/03/10 08:59:15;;;;;;;2.67;2.47;;;;;;;;;;5033467;28;20044;-61
2024/03/10 09:01:42;;;;;;;2.42;2.20;;;;;;;;;;5033176;28;20029;-61
2024/03/10 09:04:08;;;;;;;2.33;2.13;;;;;;;;;;5033452;28;20022;-61
2024/03/10 09:06:36;;;;;;;2.40;2.20;;;;;;;;;;5033359;28;20066;-61
2024/03/10 09:09:04;;;;;;;2.50;2.30;;;;;;;;;;5033326;28;20112;-61
2024/03/10 09:11:30;;;;;;;2.38;2.17;;;;;;;;;;5032569;28;20022;-61
2024/03/10 09:13:59;;;;;;;1.90;1.80;;;;;;;;;;5033099;28;20548;-62
2024/03/10 09:16:26;;;;;;;2.30;2.10;;;;;;;;;;5033543;28;20026;-62
2024/03/10 09:18:52;;;;;;;2.20;2.08;;;;;;;;;;5033224;28;20107;-62
2024/03/10 09:21:18;;;;;;;2.22;2.05;;;;;;;;;;5032499;28;20021;-62
2024/03/10 09:23:44;;;;;;;2.50;2.30;;;;;;;;;;5033117;28;20024;-61
2024/03/10 09:26:16;;;;;;;2.60;2.40;;;;;;;;;;5032927;28;20026;-62
2024/03/10 09:28:45;;;;;;;2.33;2.13;;;;;;;;;;5033265;28;20083;-61
2024/03/10 09:31:14;;;;;;;1.80;1.70;;;;;;;;;;5032406;28;20079;-61
2024/03/10 09:33:46;;;;;;;2.50;2.30;;;;;;;;;;5033099;28;20072;-61
2024/03/10 09:36:13;;;;;;;2.15;1.95;;;;;;;;;;5032884;28;20021;-61
2024/03/10 09:38:44;;;;;;;1.92;1.83;;;;;;;;;;5032362;28;20040;-61
2024/03/10 09:41:10;;;;;;;2.20;2.00;;;;;;;;;;5032372;28;20028;-61
2024/03/10 09:43:40;;;;;;;2.30;2.10;;;;;;;;;;5032691;28;20084;-61
2024/03/10 09:46:13;;;;;;;2.22;2.00;;;;;;;;;;5032860;28;20021;-61
2024/03/10 09:48:42;;;;;;;2.08;1.92;;;;;;;;;;5032658;28;20040;-60
2024/03/10 09:51:11;;;;;;;2.10;1.95;;;;;;;;;;5031897;28;20598;-61
2024/03/10 09:53:37;;;;;;;1.90;1.80;;;;;;;;;;5014771;28;20037;-61
2024/03/10 09:56:04;;;;;;;2.10;1.90;;;;;;;;;;5032521;28;20030;-61
2024/03/10 09:58:56;;;;;;;2.17;2.08;;;;;;;;;;5032496;28;20029;-61
2024/03/10 10:01:24;;;;;;;2.38;2.17;;;;;;;;;;5011169;28;20399;-61
2024/03/10 10:03:52;;;;;;;2.20;2.00;;;;;;;;;;5032093;28;20024;-61
2024/03/10 10:06:19;;;;;;;2.30;2.10;;;;;;;;;;5032192;28;20091;-61
2024/03/10 10:08:51;;;;;;;1.92;1.83;;;;;;;;;;5032306;28;20025;-61
2024/03/10 10:11:18;;;;;;;2.00;1.90;;;;;;;;;;5032437;28;20040;-62
2024/03/10 10:13:44;;;;;;;2.25;2.05;;;;;;;;;;5033066;28;20028;-61
2024/03/10 10:16:10;;;;;;;2.53;2.33;;;;;;;;;;5032910;28;20025;-62
2024/03/10 10:18:36;;;;;;;2.05;1.95;;;;;;;;;;5032399;28;20024;-62
2024/03/10 10:21:07;;;;;;;2.13;2.03;;;;;;;;;;5031642;28;20081;-61
2024/03/10 10:23:33;;;;;;;2.20;2.10;;;;;;;;;;5033713;28;20029;-60
2024/03/10 10:26:17;;;;;;;2.40;2.20;;;;;;;;;;5032058;28;20033;-62
2024/03/10 10:28:43;;;;;;;2.10;2.00;;;;;;;;;;5031861;28;20508;-62
2024/03/10 10:31:10;;;;;;;2.20;2.00;;;;;;;;;;5031066;28;20033;-62
2024/03/10 10:33:38;;;;;;;2.15;1.95;;;;;;;;;;5031856;28;20068;-62
2024/03/10 10:36:08;;;;;;;2.20;2.00;;;;;;;;;;5032006;28;20071;-62
2024/03/10 10:38:37;;;;;;;2.10;2.00;;;;;;;;;;5031687;28;20068;-62
2024/03/10 10:41:05;;;;;;;2.35;2.15;;;;;;;;;;5031014;28;20113;-61
2024/03/10 10:43:33;;;;;;;2.40;2.20;;;;;;;;;;5030772;28;20029;-61
2024/03/10 10:45:59;;;;;;;2.28;2.08;;;;;;;;;;5030233;28;20029;-61
2024/03/10 10:48:25;;;;;;;2.15;1.95;;;;;;;;;;5030368;28;20068;-61
2024/03/10 10:50:52;;;;;;;2.05;1.90;;;;;;;;;;5029833;28;20056;-61
2024/03/10 10:53:18;;;;;;;2.45;2.25;;;;;;;;;;5031705;28;20159;-61
2024/03/10 10:55:45;;;;;;;2.03;1.92;;;;;;;;;;5031595;28;20488;-62
2024/03/10 10:58:21;;;;;;;1.98;1.88;;;;;;;;;;5031363;28;20435;-62
2024/03/10 11:00:51;;;;;;;2.60;2.40;;;;;;;;;;5031013;28;20040;-62
2024/03/10 11:03:24;;;;;;;1.95;1.85;;;;;;;;;;5021380;28;20028;-62
2024/03/10 11:06:02;;;;;;;2.47;2.28;;;;;;;;;;5011819;28;20557;-62
2024/03/10 11:08:32;;;;;;;2.38;2.17;;;;;;;;;;5011228;28;20034;-63
2024/03/10 11:10:58;;;;;;;3.20;2.60;;;;;;;;;;5010496;28;20441;-64
2024/03/10 11:13:25;;;;;;;4.57;3.03;;;;;;;;;;5025687;28;20033;-65
2024/03/10 11:16:15;;;;;;;66.72;10.32;;;;;;;;;;5031085;28;20037;-63
2024/03/10 11:18:41;;;;;;;13.75;5.07;;;;;;;;;;5028067;28;20117;-62
2024/03/10 11:21:12;;;;;;;18.23;4.80;;;;;;;;;;5018378;28;20033;-63
2024/03/10 11:23:38;;;;;;;;;;;;;;;;;;5031918;28;20068;-61
2024/03/10 11:26:08;;;;;;;9.25;4.07;;;;;;;;;;5013614;28;19909;-61
2024/03/10 11:28:48;;;;;;;9.80;4.18;;;;;;;;;;5031618;28;20045;-61
2024/03/10 11:31:14;;;;;;;11.20;3.78;;;;;;;;;;5030747;28;20057;-62
2024/03/10 11:33:41;;;;;;;10.77;3.95;;;;;;;;;;5030938;28;20037;-59
2024/03/10 11:36:07;;;;;;;19.17;3.90;;;;;;;;;;5019461;28;20030;-62
2024/03/10 11:38:34;;;;;;;10.00;4.20;;;;;;;;;;5011209;28;20040;-63
2024/03/10 11:41:01;;;;;;;17.85;5.10;;;;;;;;;;5011163;28;20022;-63
2024/03/10 11:43:27;;;;;;;18.13;4.70;;;;;;;;;;5013989;28;20057;-61
2024/03/10 11:45:54;;;;;;;14.52;4.85;;;;;;;;;;5013519;28;20048;-62
2024/03/10 11:48:20;;;;;;;21.73;5.05;;;;;;;;;;5012816;28;20030;-61
2024/03/10 11:50:48;;;;;;;16.05;3.95;;;;;;;;;;5010813;28;20034;-62
2024/03/10 11:53:15;;;;;;;13.30;3.90;;;;;;;;;;5011918;28;20054;-62
2024/03/10 11:55:41;;;;;;;20.25;4.57;;;;;;;;;;5011113;28;20021;-61
2024/03/10 11:58:09;;;;;;;17.63;5.13;;;;;;;;;;5011147;28;20037;-66
2024/03/10 12:00:37;;;;;;;17.33;5.18;;;;;;;;;;5010814;28;20025;-61
2024/03/10 12:03:04;;;;;;;11.32;4.30;;;;;;;;;;5010319;28;20112;-61
2024/03/10 12:05:30;;;;;;;10.10;4.07;;;;;;;;;;5010854;28;20048;-61
2024/03/10 12:07:58;;;;;;;10.18;3.60;;;;;;;;;;5010736;28;20073;-61
2024/03/10 12:10:32;;;;;;;18.15;4.78;;;;;;;;;;5010924;28;20482;-61
2024/03/10 12:12:58;;;;;;;8.48;3.58;;;;;;;;;;5010395;28;20037;-61
2024/03/10 12:15:25;;;;;;;13.73;3.90;;;;;;;;;;5010967;28;20389;-61
2024/03/10 12:17:54;;;;;;;8.45;3.97;;;;;;;;;;5010759;28;20022;-61
2024/03/10 12:20:22;;;;;;;11.73;4.25;;;;;;;;;;5010808;28;20033;-60
2024/03/10 12:22:48;;;;;;;15.05;4.38;;;;;;;;;;5010073;28;20560;-61
2024/03/10 12:25:14;;;;;;;27.05;6.20;;;;;;;;;;5010688;28;20082;-61
2024/03/10 12:27:41;;;;;;;16.73;5.78;;;;;;;;;;5011101;28;20535;-61
2024/03/10 12:30:09;;;;;;;16.92;7.38;;;;;;;;;;5014188;28;20034;-63
2024/03/10 12:32:39;;;;;;;31.92;9.05;;;;;;;;;;5013847;28;20386;-62
2024/03/10 12:35:06;;;;;;;31.60;9.30;;;;;;;;;;5014348;28;20033;-62
2024/03/10 12:37:32;;;;;;;31.60;8.27;;;;;;;;;;5013835;28;20038;-62
2024/03/10 12:39:58;;;;;;;26.55;8.50;;;;;;;;;;5013901;28;20026;-62
2024/03/10 12:42:25;;;;;;;18.05;7.07;;;;;;;;;;5013154;28;20547;-62
2024/03/10 12:44:51;;;;;;;22.75;7.55;;;;;;;;;;5013976;28;20030;-62
2024/03/10 12:47:17;;;;;;;22.38;7.30;;;;;;;;;;5014223;28;20109;-62
2024/03/10 12:49:43;;;;;;;18.02;6.70;;;;;;;;;;5013973;28;20037;-62
2024/03/10 12:52:10;;;;;;;20.42;6.97;;;;;;;;;;5013123;28;20022;-63
2024/03/10 12:54:36;;;;;;;27.17;7.75;;;;;;;;;;5014058;28;20025;-62
2024/03/10 12:57:03;;;;;;;12.27;5.88;;;;;;;;;;5013967;28;20125;-63
2024/03/10 12:59:29;;;;;;;18.25;6.00;;;;;;;;;;5013503;28;20066;-62
2024/03/10 13:01:56;;;;;;;25.55;6.88;;;;;;;;;;5012821;28;20050;-63
2024/03/10 13:04:22;;;;;;;20.48;6.28;;;;;;;;;;5014030;28;20022;-63
2024/03/10 13:06:48;;;;;;;21.42;6.72;;;;;;;;;;5013782;28;20014;-63
2024/03/10 13:09:16;;;;;;;14.60;5.60;;;;;;;;;;5013722;28;20029;-63
2024/03/10 13:11:42;;;;;;;15.65;5.78;;;;;;;;;;5011726;28;20030;-60
2024/03/10 13:14:08;;;;;;;24.35;5.60;;;;;;;;;;5033305;28;20449;-61
2024/03/10 13:16:34;;;;;;;24.48;7.40;;;;;;;;;;5033710;28;20056;-61
2024/03/10 13:19:01;;;;;;;16.15;5.03;;;;;;;;;;5033332;28;20029;-62
2024/03/10 13:21:27;;;;;;;15.20;5.63;;;;;;;;;;5032688;28;20045;-62
2024/03/10 13:23:53;;;;;;;18.45;5.50;;;;;;;;;;5033401;28;20100;-62
2024/03/10 13:26:19;;;;;;;16.10;6.03;;;;;;;;;;5033000;28;20022;-62
2024/03/10 13:28:45;;;;;;;17.02;5.63;;;;;;;;;;5033000;28;20036;-62
2024/03/10 13:31:12;;;;;;;15.57;5.30;;;;;;;;;;5032503;28;20477;-62
2024/03/10 13:33:38;;;;;;;13.43;5.75;;;;;;;;;;5033038;28;20029;-62
2024/03/10 13:36:05;;;;;;;16.23;5.97;;;;;;;;;;5032923;28;20034;-62
2024/03/10 13:38:31;;;;;;;12.98;5.90;;;;;;;;;;5045523;23;20038;-62
2024/03/10 13:40:57;;;;;;;12.68;4.68;;;;;;;;;;5032448;28;20553;-63
2024/03/10 13:43:24;;;;;;;12.50;4.63;;;;;;;;;;5032243;28;20474;-60
2024/03/10 13:45:50;;;;;;;17.48;6.25;;;;;;;;;;5032981;28;20566;-60
2024/03/10 13:48:16;;;;;;;20.33;5.40;;;;;;;;;;5032937;28;20405;-61
2024/03/10 13:50:44;;;;;;;9.18;4.90;;;;;;;;;;5032356;28;20022;-62
2024/03/10 13:53:11;;;;;;;13.75;5.15;;;;;;;;;;5032346;28;20025;-63
2024/03/10 13:55:40;;;;;;;10.48;4.72;;;;;;;;;;5032654;28;20104;-63
2024/03/10 13:58:08;;;;;;;10.55;4.78;;;;;;;;;;5029998;28;21442;-64
2024/03/10 14:00:34;;;;;;;13.23;5.13;;;;;;;;;;5031436;28;20017;-64
2024/03/10 14:03:00;;;;;;;12.40;5.05;;;;;;;;;;5032352;28;20105;-64
2024/03/10 14:05:26;;;;;;;13.27;4.65;;;;;;;;;;5032551;28;20026;-64
2024/03/10 14:07:52;;;;;;;12.75;5.03;;;;;;;;;;5032103;28;20532;-63
2024/03/10 14:10:18;;;;;;;10.93;4.80;;;;;;;;;;5031991;28;20033;-63
2024/03/10 14:12:44;;;;;;;12.15;4.72;;;;;;;;;;5031559;28;20036;-64
2024/03/10 14:15:11;;;;;;;14.98;5.45;;;;;;;;;;5032059;28;20575;-64
2024/03/10 14:17:38;;;;;;;11.20;4.78;;;;;;;;;;5032079;28;20026;-64
2024/03/10 14:20:05;;;;;;;14.77;5.35;;;;;;;;;;5031999;28;20057;-64
2024/03/10 14:22:31;;;;;;;10.60;4.50;;;;;;;;;;5031603;28;20401;-63
2024/03/10 14:24:57;;;;;;;14.30;4.53;;;;;;;;;;5032094;28;20491;-63
2024/03/10 14:27:24;;;;;;;11.32;5.10;;;;;;;;;;5031959;28;20026;-63
2024/03/10 14:29:50;;;;;;;11.10;4.72;;;;;;;;;;5031475;28;20053;-63
2024/03/10 14:32:16;;;;;;;11.77;5.10;;;;;;;;;;5031491;28;20053;-63
2024/03/10 14:34:42;;;;;;;15.60;5.35;;;;;;;;;;5032092;28;20548;-63
2024/03/10 14:37:08;;;;;;;9.98;4.28;;;;;;;;;;5031855;28;20101;-63
2024/03/10 14:39:35;;;;;;;11.50;4.68;;;;;;;;;;5031469;28;20036;-63
2024/03/10 14:42:01;;;;;;;8.48;4.38;;;;;;;;;;5031242;28;20032;-64
2024/03/10 14:44:27;;;;;;;7.82;3.97;;;;;;;;;;5031685;28;20022;-64
2024/03/10 14:46:53;;;;;;;8.35;3.95;;;;;;;;;;5030478;28;20478;-63
2024/03/10 14:49:19;;;;;;;10.82;4.63;;;;;;;;;;5031712;28;20029;-63
2024/03/10 14:51:45;;;;;;;7.90;4.07;;;;;;;;;;5030554;28;20413;-64
2024/03/10 14:54:12;;;;;;;9.43;5.13;;;;;;;;;;5031536;28;20133;-62
2024/03/10 14:56:38;;;;;;;12.23;4.68;;;;;;;;;;5031589;28;20033;-62
2024/03/10 14:59:06;;;;;;;6.63;3.63;;;;;;;;;;5031315;28;20036;-63
2024/03/10 15:01:32;;;;;;;9.52;3.67;;;;;;;;;;5030880;28;20030;-63
2024/03/10 15:03:58;;;;;;;8.70;3.95;;;;;;;;;;5031885;28;20018;-62
2024/03/10 15:06:25;;;;;;;6.63;3.25;;;;;;;;;;5031409;28;20473;-63